Time;durP1;ratioP1;P1;durP2;ratioP2;P2;SDS_P1;SDS_P2;PMS_P1;PMS_P2;Temp;Humidity;BMP_temperature;BMP_pressure;BME280_temperature;BME280_humidity;BME280_pressure;Samples;Min_cycle;Max_cycle;Signal;HPM_P1;HPM_P2
2022/05/16 00:01:43;;;;;;;15.43;7.17;;;12.80;99.90;;;;;;5113682;28;20288;-78
2022/05/16 00:04:10;;;;;;;9.53;7.30;;;12.80;99.90;;;;;;5113808;28;20203;-77
2022/05/16 00:06:37;;;;;;;8.47;6.70;;;12.80;99.90;;;;;;5113650;28;20719;-77
2022/05/16 00:09:05;;;;;;;12.00;7.23;;;12.80;99.90;;;;;;5095913;28;20226;-77
2022/05/16 00:11:33;;;;;;;8.03;6.63;;;12.80;99.90;;;;;;5113538;28;20716;-78
2022/05/16 00:14:00;;;;;;;12.10;6.20;;;12.70;99.90;;;;;;5113603;28;20731;-78
2022/05/16 00:16:27;;;;;;;8.57;7.20;;;12.70;99.90;;;;;;5113668;28;20256;-75
2022/05/16 00:18:54;;;;;;;10.40;7.13;;;12.70;99.90;;;;;;5113371;28;20207;-78
2022/05/16 00:21:21;;;;;;;10.40;7.80;;;12.60;99.90;;;;;;5113479;28;20192;-78
2022/05/16 00:23:48;;;;;;;9.47;7.70;;;12.60;99.90;;;;;;5113435;28;20199;-78
2022/05/16 00:26:14;;;;;;;11.47;7.80;;;12.50;99.90;;;;;;5113264;28;20191;-78
2022/05/16 00:28:42;;;;;;;12.13;7.27;;;12.50;99.90;;;;;;5113520;28;20276;-78
2022/05/16 00:31:09;;;;;;;11.50;7.03;;;12.40;99.90;;;;;;5113539;28;20195;-78
2022/05/16 00:33:36;;;;;;;11.33;7.60;;;12.40;99.90;;;;;;5113692;28;20199;-78
2022/05/16 00:36:04;;;;;;;9.30;7.43;;;12.40;99.90;;;;;;5113376;28;20601;-78
2022/05/16 00:38:31;;;;;;;11.77;7.50;;;12.30;99.90;;;;;;5113347;28;20208;-78
2022/05/16 00:41:01;;;;;;;10.00;7.33;;;12.30;99.90;;;;;;5113085;28;20204;-78
2022/05/16 00:43:46;;;;;;;8.50;6.70;;;12.40;99.90;;;;;;5113163;28;20715;-78
2022/05/16 00:46:14;;;;;;;11.13;7.43;;;12.30;99.90;;;;;;5113354;28;20199;-78
2022/05/16 00:48:40;;;;;;;11.47;6.83;;;12.20;99.90;;;;;;5113261;28;20218;-78
2022/05/16 00:51:12;;;;;;;11.90;7.30;;;12.30;99.90;;;;;;5114078;28;20203;-78
2022/05/16 00:53:39;;;;;;;10.83;7.00;;;12.40;99.90;;;;;;5117643;28;20253;-78
2022/05/16 00:56:06;;;;;;;8.00;6.77;;;12.30;99.90;;;;;;5117142;28;20203;-78
2022/05/16 00:58:36;;;;;;;9.50;6.70;;;12.20;99.90;;;;;;5116982;28;20200;-78
2022/05/16 01:04:47;;;;;;;9.20;6.43;;;12.00;99.90;;;;;;5117355;28;20280;-78
2022/05/16 01:06:38;;;;;;;7.37;6.27;;;11.90;99.90;;;;;;5101933;28;20202;-78
2022/05/16 01:09:04;;;;;;;11.53;6.43;;;12.00;99.90;;;;;;5117104;28;20261;-78
2022/05/16 01:11:31;;;;;;;7.27;6.00;;;12.00;99.90;;;;;;5117055;28;20199;-78
2022/05/16 01:13:58;;;;;;;10.20;6.83;;;12.00;99.90;;;;;;5117042;28;20654;-78
2022/05/16 01:16:29;;;;;;;8.23;6.33;;;12.10;99.90;;;;;;5117795;28;20200;-78
2022/05/16 01:18:56;;;;;;;7.70;6.50;;;12.00;99.90;;;;;;5119065;28;20195;-78
2022/05/16 01:21:32;;;;;;;8.20;6.50;;;11.90;99.90;;;;;;5128992;28;20205;-77
2022/05/16 01:24:04;;;;;;;10.47;6.53;;;11.80;99.90;;;;;;5125220;28;20176;-78
2022/05/16 01:26:33;;;;;;;13.03;6.37;;;11.90;99.90;;;;;;5140670;28;20217;-75
2022/05/16 01:29:00;;;;;;;8.13;6.63;;;12.00;99.90;;;;;;5140164;28;20259;-75
2022/05/16 01:31:28;;;;;;;8.03;7.00;;;11.80;99.90;;;;;;5142842;28;20206;-76
2022/05/16 01:33:54;;;;;;;8.50;6.53;;;11.80;99.90;;;;;;5142831;28;20179;-77
2022/05/16 01:36:21;;;;;;;11.50;7.87;;;11.90;99.90;;;;;;5130190;28;20253;-78
2022/05/16 01:38:48;;;;;;;11.83;7.97;;;11.90;99.90;;;;;;5126434;28;20191;-78
2022/05/16 01:41:18;;;;;;;13.40;8.47;;;11.90;99.90;;;;;;5119943;28;20192;-76
2022/05/16 01:43:47;;;;;;;15.63;9.70;;;11.80;99.90;;;;;;5117198;28;20203;-77
2022/05/16 01:46:20;;;;;;;22.23;11.97;;;11.90;99.90;;;;;;5116572;28;20195;-76
2022/05/16 01:48:46;;;;;;;15.67;9.73;;;11.80;99.90;;;;;;5116272;28;20200;-76
2022/05/16 01:51:14;;;;;;;18.83;11.43;;;11.70;99.90;;;;;;5116259;28;20241;-76
2022/05/16 01:53:43;;;;;;;12.57;8.10;;;11.60;99.90;;;;;;5116389;28;20229;-77
2022/05/16 01:56:12;;;;;;;16.20;9.90;;;11.80;99.90;;;;;;5117244;28;20211;-76
2022/05/16 01:58:41;;;;;;;20.10;11.73;;;11.80;99.90;;;;;;5115998;28;20195;-77
2022/05/16 02:01:09;;;;;;;18.80;10.70;;;11.70;99.90;;;;;;5115993;28;20245;-77
2022/05/16 02:03:38;;;;;;;13.80;9.30;;;11.70;99.90;;;;;;5115089;28;20192;-76
2022/05/16 02:06:05;;;;;;;11.53;8.00;;;11.60;99.90;;;;;;5116268;28;20278;-77
2022/05/16 02:08:32;;;;;;;12.73;9.40;;;11.60;99.90;;;;;;5116560;28;20286;-77
2022/05/16 02:10:59;;;;;;;14.73;8.33;;;11.50;99.90;;;;;;5117090;28;20635;-76
2022/05/16 02:13:25;;;;;;;15.23;9.20;;;11.50;99.90;;;;;;5129357;28;20203;-76
2022/05/16 02:15:53;;;;;;;19.70;11.23;;;11.50;99.90;;;;;;5132942;28;20195;-78
2022/05/16 02:18:20;;;;;;;16.67;10.93;;;11.50;99.90;;;;;;5116555;28;20654;-77
2022/05/16 02:20:47;;;;;;;17.47;9.83;;;11.50;99.90;;;;;;5115682;28;20248;-76
2022/05/16 02:25:58;;;;;;;17.20;10.37;;;11.40;99.90;;;;;;5115702;28;20207;-77
2022/05/16 02:28:25;;;;;;;18.53;10.20;;;11.50;99.90;;;;;;5115516;28;20199;-77
2022/05/16 02:30:55;;;;;;;18.37;9.93;;;11.50;99.90;;;;;;5115744;28;20268;-77
2022/05/16 02:33:22;;;;;;;15.10;9.20;;;11.40;99.90;;;;;;5115265;28;20650;-77
2022/05/16 02:35:49;;;;;;;13.80;9.17;;;11.40;99.90;;;;;;5115574;28;20608;-77
2022/05/16 02:38:26;;;;;;;11.63;8.47;;;11.40;99.90;;;;;;5115464;28;20196;-77
2022/05/16 02:40:52;;;;;;;11.00;8.43;;;11.40;99.90;;;;;;5115194;28;20199;-78
2022/05/16 02:43:19;;;;;;;14.23;8.93;;;11.30;99.90;;;;;;5115129;28;20249;-77
2022/05/16 02:45:46;;;;;;;10.53;7.80;;;11.30;99.90;;;;;;5114956;28;20727;-77
2022/05/16 02:48:14;;;;;;;13.13;9.17;;;11.30;99.90;;;;;;5115310;28;20203;-77
2022/05/16 02:50:43;;;;;;;11.87;8.87;;;11.20;99.90;;;;;;5113899;28;20223;-77
2022/05/16 02:53:10;;;;;;;11.27;8.43;;;11.20;99.90;;;;;;5112742;28;20204;-76
2022/05/16 02:55:37;;;;;;;11.03;8.10;;;11.10;99.90;;;;;;5112546;28;20203;-77
2022/05/16 02:58:06;;;;;;;9.60;8.60;;;11.10;99.90;;;;;;5112515;28;20191;-77
2022/05/16 03:00:33;;;;;;;9.63;8.30;;;11.20;99.90;;;;;;5112338;28;20764;-77
2022/05/16 03:03:02;;;;;;;11.87;8.43;;;11.10;99.90;;;;;;5112269;28;20195;-77
2022/05/16 03:05:30;;;;;;;11.30;8.67;;;11.00;99.90;;;;;;5112505;28;20304;-77
2022/05/16 03:07:58;;;;;;;10.33;8.37;;;11.00;99.90;;;;;;5112364;28;20699;-78
2022/05/16 03:10:26;;;;;;;9.67;8.40;;;11.00;99.90;;;;;;5112339;28;20234;-77
2022/05/16 03:12:53;;;;;;;11.40;8.83;;;11.00;99.90;;;;;;5112144;28;20248;-76
2022/05/16 03:15:20;;;;;;;16.93;11.03;;;11.00;99.90;;;;;;5112053;28;20278;-77
2022/05/16 03:17:47;;;;;;;21.30;12.30;;;11.00;99.90;;;;;;5112183;28;20655;-77
2022/05/16 03:20:15;;;;;;;16.00;10.90;;;11.00;99.90;;;;;;5112592;28;20204;-77
2022/05/16 03:22:43;;;;;;;18.33;10.87;;;11.10;99.90;;;;;;5111844;28;20200;-77
2022/05/16 03:25:10;;;;;;;17.33;10.40;;;11.10;99.90;;;;;;5111686;28;20196;-77
2022/05/16 03:27:37;;;;;;;15.37;9.67;;;11.10;99.90;;;;;;5111442;28;20203;-77
2022/05/16 03:30:05;;;;;;;14.40;9.40;;;11.10;99.90;;;;;;5111741;28;20227;-77
2022/05/16 03:32:32;;;;;;;15.17;9.83;;;11.20;99.90;;;;;;5113740;28;20196;-78
2022/05/16 03:34:59;;;;;;;16.03;10.60;;;11.20;99.90;;;;;;5112860;28;20195;-77
2022/05/16 03:37:25;;;;;;;20.33;11.50;;;11.30;99.90;;;;;;5114173;28;20203;-78
2022/05/16 03:42:37;;;;;;;12.77;9.27;;;11.30;99.90;;;;;;5114240;28;20326;-77
2022/05/16 03:45:05;;;;;;;13.47;9.33;;;11.40;99.90;;;;;;5113914;28;20195;-77
2022/05/16 03:47:32;;;;;;;11.57;9.00;;;11.60;99.90;;;;;;5113776;28;20199;-77
2022/05/16 03:49:58;;;;;;;12.33;8.43;;;11.70;99.90;;;;;;5113828;28;20219;-77
2022/05/16 03:52:25;;;;;;;11.87;8.37;;;11.70;99.90;;;;;;5113805;28;20524;-77
2022/05/16 03:54:53;;;;;;;8.50;7.50;;;11.60;99.90;;;;;;5113801;28;20253;-77
2022/05/16 03:57:21;;;;;;;10.97;7.43;;;11.50;99.90;;;;;;5114068;28;20241;-77
2022/05/16 03:59:48;;;;;;;11.23;7.93;;;11.50;99.90;;;;;;5113841;28;20208;-76
2022/05/16 04:02:15;;;;;;;9.97;8.07;;;11.70;99.90;;;;;;5114158;28;20741;-76
2022/05/16 04:04:43;;;;;;;10.50;7.70;;;11.80;99.90;;;;;;5113515;28;20711;-76
2022/05/16 04:07:10;;;;;;;15.13;8.50;;;12.00;99.90;;;;;;5113567;28;20195;-76
2022/05/16 04:09:37;;;;;;;15.43;9.17;;;12.20;99.90;;;;;;5113501;28;20536;-76
2022/05/16 04:12:06;;;;;;;17.73;10.33;;;12.40;99.90;;;;;;5113736;28;20257;-76
2022/05/16 04:14:33;;;;;;;16.73;9.43;;;12.50;99.90;;;;;;5113730;28;20191;-76
2022/05/16 04:17:00;;;;;;;17.37;9.20;;;12.70;99.90;;;;;;5113622;28;20240;-76
2022/05/16 04:19:26;;;;;;;13.23;8.43;;;12.80;99.90;;;;;;5113482;28;20235;-76
2022/05/16 04:21:53;;;;;;;11.43;8.70;;;12.90;99.90;;;;;;5113465;28;20256;-76
2022/05/16 04:24:20;;;;;;;14.17;8.93;;;12.90;99.90;;;;;;5113324;28;20200;-77
2022/05/16 04:26:47;;;;;;;16.53;9.20;;;13.00;99.90;;;;;;5112892;28;20654;-77
2022/05/16 04:29:14;;;;;;;13.87;9.00;;;13.10;99.90;;;;;;5113490;28;20222;-78
2022/05/16 04:31:42;;;;;;;13.73;9.17;;;13.20;99.90;;;;;;5113362;28;20269;-77
2022/05/16 04:34:09;;;;;;;14.00;8.73;;;13.30;99.90;;;;;;5113469;28;20727;-77
2022/05/16 04:36:36;;;;;;;11.23;8.80;;;13.30;99.90;;;;;;5113991;28;20195;-78
2022/05/16 04:39:03;;;;;;;11.97;8.63;;;13.40;99.90;;;;;;5114484;28;20195;-77
2022/05/16 04:44:16;;;;;;;14.20;9.07;;;13.60;99.90;;;;;;5138619;28;20179;-77
2022/05/16 04:46:42;;;;;;;12.50;8.80;;;13.60;99.90;;;;;;5138679;28;20221;-77
2022/05/16 04:49:09;;;;;;;11.83;8.27;;;13.70;99.90;;;;;;5135180;28;20189;-76
2022/05/16 04:51:36;;;;;;;15.07;8.67;;;13.70;99.90;;;;;;5136928;28;20215;-76
2022/05/16 04:54:03;;;;;;;13.43;8.97;;;13.80;99.90;;;;;;5137436;28;20196;-76
2022/05/16 04:56:31;;;;;;;13.30;9.23;;;13.90;99.90;;;;;;5139175;28;20206;-77
2022/05/16 04:58:58;;;;;;;11.43;8.93;;;14.00;99.90;;;;;;5130842;28;20229;-77
2022/05/16 05:01:26;;;;;;;14.40;9.70;;;14.00;99.90;;;;;;5118959;28;20261;-77
2022/05/16 05:03:54;;;;;;;14.40;9.60;;;14.10;99.90;;;;;;5115262;28;20260;-78
2022/05/16 05:06:21;;;;;;;15.23;10.17;;;14.10;99.90;;;;;;5113739;28;20554;-77
2022/05/16 05:08:48;;;;;;;20.30;10.37;;;14.20;99.90;;;;;;5113728;28;20203;-76
2022/05/16 05:16:44;;;;;;;18.17;10.30;;;14.40;99.90;;;;;;5113289;28;20195;-76
2022/05/16 05:19:11;;;;;;;16.17;10.80;;;14.50;99.90;;;;;;5113102;28;20225;-76
2022/05/16 05:21:38;;;;;;;20.97;11.17;;;14.60;99.90;;;;;;5112497;28;20208;-76
2022/05/16 05:24:05;;;;;;;20.77;11.70;;;14.60;99.90;;;;;;5112836;28;20195;-76
2022/05/16 05:26:32;;;;;;;18.43;10.43;;;14.70;99.90;;;;;;5113347;28;20203;-76
2022/05/16 05:28:58;;;;;;;19.30;9.73;;;14.70;99.90;;;;;;5113221;28;20220;-76
2022/05/16 05:31:26;;;;;;;14.20;10.23;;;14.90;99.90;;;;;;5127936;28;20227;-74
2022/05/16 05:33:55;;;;;;;15.83;10.67;;;15.10;99.90;;;;;;5125408;28;20225;-75
2022/05/16 05:36:22;;;;;;;23.87;11.13;;;15.10;99.90;;;;;;5113602;28;20279;-76
2022/05/16 05:38:51;;;;;;;15.93;9.87;;;15.30;99.90;;;;;;5115176;28;20253;-76
2022/05/16 05:41:19;;;;;;;16.43;11.50;;;15.40;99.90;;;;;;5116833;28;20199;-77
2022/05/16 05:43:46;;;;;;;18.57;11.90;;;15.60;99.90;;;;;;5116578;28;20245;-77
2022/05/16 05:46:12;;;;;;;22.07;13.10;;;15.70;99.90;;;;;;5098007;28;20707;-77
2022/05/16 05:48:39;;;;;;;18.00;12.55;;;15.70;99.90;;;;;;5116244;28;20552;-77
2022/05/16 05:51:10;;;;;;;19.77;10.97;;;15.80;99.90;;;;;;5115911;28;20559;-78
2022/05/16 05:53:37;;;;;;;16.08;10.38;;;16.00;99.90;;;;;;5116107;28;20647;-78
2022/05/16 05:56:05;;;;;;;17.45;10.40;;;16.10;99.90;;;;;;5116337;28;20195;-78
2022/05/16 05:58:33;;;;;;;13.27;9.52;;;16.20;99.90;;;;;;5116186;28;20651;-77
2022/05/16 06:01:00;;;;;;;13.07;9.52;;;16.40;99.90;;;;;;5115736;28;20250;-77
2022/05/16 06:03:27;;;;;;;16.55;9.57;;;16.70;99.90;;;;;;5116057;28;20195;-77
2022/05/16 06:05:54;;;;;;;18.50;9.00;;;16.90;99.90;;;;;;5115774;28;20678;-77
2022/05/16 06:08:22;;;;;;;17.08;9.05;;;16.90;99.90;;;;;;5116105;28;20200;-77
2022/05/16 06:10:49;;;;;;;17.77;8.80;;;17.10;99.90;;;;;;5115936;28;20249;-78
2022/05/16 06:13:16;;;;;;;18.38;7.50;;;17.30;99.90;;;;;;5115711;28;20668;-77
2022/05/16 06:15:43;;;;;;;16.15;8.38;;;17.40;99.90;;;;;;5115793;28;20695;-77
2022/05/16 06:18:10;;;;;;;15.13;7.82;;;17.60;99.90;;;;;;5115800;28;20202;-76
2022/05/16 06:20:39;;;;;;;15.48;8.40;;;17.70;99.90;;;;;;5115668;28;20252;-77
2022/05/16 06:23:07;;;;;;;16.55;6.97;;;17.90;99.90;;;;;;5115754;28;20595;-77
2022/05/16 06:25:39;;;;;;;11.25;7.60;;;18.00;99.90;;;;;;5115625;28;20642;-78
2022/05/16 06:28:09;;;;;;;14.20;7.60;;;18.20;99.90;;;;;;5115157;28;20296;-77
2022/05/16 06:30:39;;;;;;;9.88;7.30;;;18.30;99.90;;;;;;5115154;28;20222;-78
2022/05/16 06:33:07;;;;;;;8.65;5.95;;;18.50;99.90;;;;;;5115159;28;20257;-72
2022/05/16 06:35:35;;;;;;;17.08;6.13;;;18.60;99.90;;;;;;5110902;27;20207;-73
2022/05/16 06:38:10;;;;;;;11.77;5.88;;;18.80;99.90;;;;;;5100570;27;20678;-71
2022/05/16 06:40:40;;;;;;;12.85;6.43;;;19.00;99.90;;;;;;5118115;27;20198;-72
2022/05/16 06:43:08;;;;;;;8.38;5.03;;;19.20;99.90;;;;;;5114617;28;20223;-72
2022/05/16 06:45:35;;;;;;;11.02;5.30;;;19.50;99.90;;;;;;5114726;28;20261;-72
2022/05/16 06:48:03;;;;;;;10.13;4.78;;;19.50;99.90;;;;;;5108984;27;20196;-72
2022/05/16 06:50:30;;;;;;;7.43;4.15;;;19.60;99.90;;;;;;5112925;27;20283;-72
2022/05/16 06:52:57;;;;;;;8.20;4.18;;;19.60;99.90;;;;;;5093196;28;20207;-72
2022/05/16 06:55:24;;;;;;;5.57;4.03;;;19.70;99.90;;;;;;5127923;27;20203;-72
2022/05/16 06:57:52;;;;;;;5.70;4.20;;;19.70;99.90;;;;;;5121005;27;20202;-71
2022/05/16 07:00:20;;;;;;;8.65;4.32;;;19.80;99.90;;;;;;5120836;27;20234;-71
2022/05/16 07:02:48;;;;;;;8.43;4.40;;;19.90;99.90;;;;;;5131861;27;20601;-71
2022/05/16 07:05:15;;;;;;;5.45;3.70;;;20.10;99.90;;;;;;5125139;27;20194;-73
2022/05/16 07:07:42;;;;;;;5.15;4.10;;;20.40;99.90;;;;;;5131287;27;20203;-73
2022/05/16 07:10:09;;;;;;;5.70;3.90;;;20.60;99.90;;;;;;5127679;27;20290;-72
2022/05/16 07:12:35;;;;;;;7.57;4.25;;;20.70;99.90;;;;;;5131096;27;20223;-73
2022/05/16 07:15:04;;;;;;;6.43;4.10;;;21.00;99.90;;;;;;5134030;27;20191;-72
2022/05/16 07:17:30;;;;;;;7.85;3.83;;;21.10;98.70;;;;;;5133194;27;20252;-72
2022/05/16 07:19:57;;;;;;;7.72;4.15;;;21.40;98.70;;;;;;5131333;27;20287;-71
2022/05/16 07:22:24;;;;;;;8.60;4.10;;;21.60;96.70;;;;;;5116884;27;20199;-71
2022/05/16 07:24:52;;;;;;;4.57;3.97;;;21.90;95.80;;;;;;5116143;27;20248;-72
2022/05/16 07:30:07;;;;;;;8.15;4.03;;;22.20;91.50;;;;;;5126697;27;20693;-72
2022/05/16 07:32:35;;;;;;;5.47;4.18;;;21.80;90.40;;;;;;5126801;27;20628;-72
2022/05/16 07:35:03;;;;;;;4.90;4.20;;;21.80;90.10;;;;;;5132033;27;20251;-74
2022/05/16 07:37:32;;;;;;;5.60;3.90;;;21.60;91.00;;;;;;5115995;27;20251;-73
2022/05/16 07:39:59;;;;;;;4.90;3.80;;;21.90;90.60;;;;;;5112389;28;20203;-72
2022/05/16 07:42:26;;;;;;;5.05;4.10;;;21.70;90.30;;;;;;5113169;28;20306;-74
2022/05/16 07:44:53;;;;;;;4.93;4.38;;;21.30;91.90;;;;;;5129526;27;20240;-71
2022/05/16 07:47:21;;;;;;;4.30;3.85;;;21.10;93.70;;;;;;5133325;27;20256;-71
2022/05/16 07:49:47;;;;;;;6.80;4.22;;;21.10;95.70;;;;;;5122893;27;20206;-71
2022/05/16 07:52:14;;;;;;;4.60;4.20;;;21.10;95.40;;;;;;5128426;27;20215;-71
2022/05/16 07:54:40;;;;;;;7.82;4.68;;;20.90;97.80;;;;;;5117958;27;20245;-71
2022/05/16 07:57:07;;;;;;;5.80;4.47;;;20.70;99.10;;;;;;5126143;27;20666;-70
2022/05/16 07:59:34;;;;;;;8.88;5.32;;;20.40;99.90;;;;;;5137265;27;20753;-73
2022/05/16 08:02:00;;;;;;;8.65;5.32;;;19.30;99.90;;;;;;5123075;27;20234;-73
2022/05/16 08:04:28;;;;;;;8.98;5.15;;;17.80;99.90;;;;;;5135481;27;20259;-73
2022/05/16 08:06:55;;;;;;;11.15;5.70;;;17.70;99.90;;;;;;5146254;27;20220;-74
2022/05/16 08:12:07;;;;;;;7.05;5.43;;;18.20;99.90;;;;;;5131309;27;20261;-74
2022/05/16 08:14:34;;;;;;;6.93;6.22;;;18.20;99.90;;;;;;5135417;27;20199;-73
2022/05/16 08:17:01;;;;;;;8.15;5.95;;;18.40;99.90;;;;;;5127970;27;20195;-73
2022/05/16 08:19:30;;;;;;;11.90;7.13;;;18.70;99.90;;;;;;5109519;27;20199;-73
2022/05/16 08:21:57;;;;;;;7.63;6.90;;;18.90;99.90;;;;;;5112126;27;20286;-73
2022/05/16 08:24:23;;;;;;;7.68;6.88;;;19.30;99.90;;;;;;5112505;28;20196;-72
2022/05/16 08:26:51;;;;;;;8.98;6.70;;;19.50;99.90;;;;;;5120302;28;20195;-74
2022/05/16 08:29:17;;;;;;;8.82;6.80;;;19.60;99.90;;;;;;5111713;28;20253;-73
2022/05/16 08:31:44;;;;;;;10.05;6.60;;;19.80;99.90;;;;;;5111212;28;20215;-73
2022/05/16 08:34:12;;;;;;;9.30;6.13;;;20.20;99.90;;;;;;5094032;28;20231;-72
2022/05/16 08:42:14;;;;;;;5.80;5.20;;;20.30;99.90;;;;;;5114557;28;20202;-72
2022/05/16 08:44:50;;;;;;;10.27;5.10;;;19.80;99.90;;;;;;5111278;28;20249;-71
2022/05/16 08:47:29;;;;;;;6.72;4.78;;;19.70;99.90;;;;;;5117140;28;20244;-71
2022/05/16 08:49:58;;;;;;;8.25;5.43;;;19.50;99.90;;;;;;5112211;28;20236;-71
2022/05/16 08:52:36;;;;;;;13.73;5.97;;;19.60;99.90;;;;;;5110221;28;20221;-71
2022/05/16 08:55:10;;;;;;;8.57;5.65;;;19.30;99.90;;;;;;5112095;28;20264;-71
2022/05/16 08:57:41;;;;;;;6.95;5.80;;;19.10;99.90;;;;;;5115796;28;20214;-72
2022/05/16 09:00:10;;;;;;;9.80;5.93;;;19.00;99.90;;;;;;5111428;28;20231;-73
2022/05/16 09:02:42;;;;;;;9.98;7.43;;;18.90;99.90;;;;;;5111353;28;20196;-75
2022/05/16 09:05:16;;;;;;;7.95;6.22;;;18.60;99.90;;;;;;5111707;28;20192;-75
2022/05/16 09:07:48;;;;;;;7.95;7.15;;;18.30;99.90;;;;;;5124353;28;20191;-74
2022/05/16 09:10:17;;;;;;;8.25;6.97;;;18.40;99.90;;;;;;5111199;28;20196;-75
2022/05/16 09:12:53;;;;;;;12.00;6.47;;;18.60;99.90;;;;;;5113212;28;20298;-74
2022/05/16 09:15:35;;;;;;;8.15;6.60;;;18.80;99.90;;;;;;5124011;27;20580;-73
2022/05/16 09:18:17;;;;;;;7.45;6.75;;;19.10;99.90;;;;;;5129256;27;20194;-73
2022/05/16 09:20:50;;;;;;;10.18;6.78;;;19.30;99.90;;;;;;5117079;27;20196;-73
2022/05/16 09:23:33;;;;;;;8.80;6.35;;;19.60;99.90;;;;;;5120127;27;20224;-72
2022/05/16 09:26:08;;;;;;;9.02;6.72;;;19.80;99.90;;;;;;5118433;27;20199;-72
2022/05/16 09:28:42;;;;;;;12.38;7.15;;;19.60;99.90;;;;;;5113648;27;20196;-72
2022/05/16 09:31:18;;;;;;;10.07;6.45;;;19.80;99.90;;;;;;5115105;28;20708;-72
2022/05/16 09:33:47;;;;;;;8.65;6.38;;;20.30;99.90;;;;;;5114910;28;20544;-72
2022/05/16 09:36:19;;;;;;;8.25;6.25;;;20.70;99.90;;;;;;5115131;28;20192;-72
2022/05/16 09:38:47;;;;;;;9.02;6.30;;;20.90;99.90;;;;;;5134629;27;20217;-72
2022/05/16 09:41:23;;;;;;;7.28;6.35;;;21.40;99.90;;;;;;5135488;27;20561;-72
2022/05/16 09:43:58;;;;;;;14.70;6.13;;;21.20;99.90;;;;;;5114747;28;20260;-71
2022/05/16 09:46:32;;;;;;;8.10;6.55;;;21.30;99.90;;;;;;5120869;27;20190;-72
2022/05/16 09:49:09;;;;;;;7.35;6.15;;;21.50;99.90;;;;;;5121445;27;20218;-72
2022/05/16 09:51:48;;;;;;;7.25;5.97;;;21.60;99.90;;;;;;5116711;27;20211;-72
2022/05/16 09:54:27;;;;;;;6.70;5.63;;;21.30;99.90;;;;;;5114251;28;20188;-71
2022/05/16 09:57:21;;;;;;;9.15;6.05;;;21.10;99.90;;;;;;5114356;28;20188;-71
2022/05/16 09:59:51;;;;;;;9.23;6.30;;;20.80;99.90;;;;;;5065616;27;20198;-71
2022/05/16 10:02:25;;;;;;;7.47;6.60;;;21.10;99.90;;;;;;5119401;27;20307;-71
2022/05/16 10:04:56;;;;;;;13.43;6.10;;;21.40;99.90;;;;;;5116545;27;20199;-71
2022/05/16 10:07:29;;;;;;;8.48;6.20;;;21.90;99.90;;;;;;5122226;27;20196;-71
2022/05/16 10:09:58;;;;;;;7.50;6.32;;;21.90;99.90;;;;;;5115461;27;20593;-71
2022/05/16 10:12:28;;;;;;;9.18;6.13;;;22.30;99.90;;;;;;5121394;27;20226;-70
2022/05/16 10:14:55;;;;;;;8.10;6.00;;;22.70;99.90;;;;;;5122584;27;20640;-71
2022/05/16 10:17:28;;;;;;;7.38;5.90;;;23.40;99.90;;;;;;5122437;27;20195;-71
2022/05/16 10:20:00;;;;;;;7.05;5.80;;;23.80;99.90;;;;;;5119516;27;20195;-71
2022/05/16 10:22:29;;;;;;;11.10;5.35;;;24.80;99.90;;;;;;5122104;27;20286;-70
2022/05/16 10:25:00;;;;;;;7.40;4.57;;;25.50;99.90;;;;;;5119655;27;20212;-71
2022/05/16 10:27:32;;;;;;;10.52;4.57;;;25.30;99.90;;;;;;5118812;27;20691;-71
2022/05/16 10:30:04;;;;;;;7.80;4.07;;;24.60;99.90;;;;;;5122139;27;20187;-71
2022/05/16 10:35:26;;;;;;;9.15;4.53;;;23.80;99.90;;;;;;5121438;27;20210;-71
2022/05/16 10:37:57;;;;;;;6.80;4.65;;;24.10;99.90;;;;;;5122289;27;20247;-71
2022/05/16 10:40:29;;;;;;;6.97;4.15;;;23.70;99.90;;;;;;5118882;27;20237;-70
2022/05/16 10:43:11;;;;;;;6.50;4.53;;;23.40;99.90;;;;;;5124088;27;20196;-71
2022/05/16 10:45:41;;;;;;;8.95;4.57;;;23.10;99.90;;;;;;5131550;27;20202;-71
2022/05/16 10:48:15;;;;;;;6.47;4.78;;;23.10;99.90;;;;;;5118236;27;20195;-71
2022/05/16 10:50:46;;;;;;;5.60;4.22;;;23.30;99.90;;;;;;5117181;27;20281;-71
2022/05/16 10:53:18;;;;;;;7.70;4.30;;;23.10;99.90;;;;;;5125830;27;20253;-71
2022/05/16 10:55:54;;;;;;;5.28;3.85;;;23.50;99.90;;;;;;5113467;28;20248;-70
2022/05/16 10:58:30;;;;;;;9.38;4.43;;;24.00;99.90;;;;;;5113803;28;20259;-70
2022/05/16 11:01:04;;;;;;;5.32;4.32;;;25.40;99.90;;;;;;5117586;27;20780;-70
2022/05/16 11:04:07;;;;;;;7.53;4.57;;;24.80;99.90;;;;;;5124736;27;20278;-70
2022/05/16 11:07:03;;;;;;;8.05;4.70;;;24.10;99.90;;;;;;5123687;27;20248;-69
2022/05/16 11:09:39;;;;;;;10.57;4.85;;;24.80;99.90;;;;;;5112701;28;20208;-70
2022/05/16 11:12:14;;;;;;;7.72;4.40;;;24.80;99.90;;;;;;5118569;27;20224;-71
2022/05/16 11:14:48;;;;;;;5.25;4.22;;;26.10;99.90;;;;;;5124637;27;20244;-71
2022/05/16 11:17:24;;;;;;;6.15;3.90;;;28.20;95.00;;;;;;5127925;27;20192;-70
2022/05/16 11:19:58;;;;;;;4.65;4.20;;;29.60;86.80;;;;;;5129850;27;20199;-70
2022/05/16 11:22:30;;;;;;;9.38;4.35;;;28.40;78.60;;;;;;5122890;27;20252;-70
2022/05/16 11:25:06;;;;;;;5.25;4.57;;;26.30;90.60;;;;;;5126625;27;20731;-70
2022/05/16 11:27:39;;;;;;;6.32;4.30;;;25.60;92.30;;;;;;5132597;27;20744;-70
2022/05/16 11:30:14;;;;;;;6.47;4.70;;;25.80;95.20;;;;;;5133064;27;20194;-71
2022/05/16 11:33:07;;;;;;;5.10;4.60;;;25.60;96.20;;;;;;5126378;27;20215;-71
2022/05/16 11:35:40;;;;;;;9.70;4.15;;;26.10;96.40;;;;;;5114907;27;20609;-71
2022/05/16 11:38:23;;;;;;;6.05;4.22;;;27.10;94.70;;;;;;5118409;27;20660;-71
2022/05/16 11:40:59;;;;;;;6.60;4.97;;;26.60;94.80;;;;;;5122657;27;20662;-71
2022/05/16 11:43:29;;;;;;;8.57;5.50;;;25.60;97.60;;;;;;5113954;27;20202;-70
2022/05/16 11:46:20;;;;;;;7.75;5.78;;;24.90;99.90;;;;;;5120283;27;20249;-70
2022/05/16 11:48:56;;;;;;;5.97;5.38;;;24.40;99.90;;;;;;5106579;28;20289;-71
2022/05/16 11:51:36;;;;;;;7.13;6.15;;;24.50;99.90;;;;;;5111133;28;20202;-70
2022/05/16 11:54:05;;;;;;;8.07;6.10;;;24.10;99.90;;;;;;5124925;27;20218;-70
2022/05/16 12:02:19;;;;;;;7.43;5.20;;;24.90;99.90;;;;;;5126473;27;20284;-71
2022/05/16 12:04:48;;;;;;;5.57;4.97;;;24.70;99.90;;;;;;5109019;27;20746;-71
2022/05/16 12:07:23;;;;;;;6.50;5.22;;;24.30;99.90;;;;;;5116416;27;20199;-70
2022/05/16 12:09:56;;;;;;;7.55;4.88;;;24.10;99.90;;;;;;5110797;28;20200;-70
2022/05/16 12:12:34;;;;;;;5.43;4.93;;;24.40;99.90;;;;;;5114904;27;20769;-71
2022/05/16 12:15:29;;;;;;;12.60;4.75;;;24.70;99.90;;;;;;5121289;27;20263;-70
2022/05/16 12:17:58;;;;;;;5.68;4.50;;;25.80;99.90;;;;;;5120127;27;20600;-71
2022/05/16 12:20:51;;;;;;;5.07;3.72;;;26.50;99.90;;;;;;5110152;28;20252;-72
2022/05/16 12:23:59;;;;;;;4.03;3.70;;;29.30;93.70;;;;;;5122165;27;20214;-72
2022/05/16 12:27:15;;;;;;;4.40;3.92;;;28.20;87.60;;;;;;5132832;28;20199;-72
2022/05/16 12:29:49;;;;;;;4.38;3.97;;;27.70;89.70;;;;;;5112142;28;20207;-72
2022/05/16 12:32:55;;;;;;;6.53;4.05;;;26.70;92.30;;;;;;5131515;28;20199;-72
2022/05/16 12:35:41;;;;;;;5.65;4.68;;;26.00;95.20;;;;;;5111973;28;20195;-72
2022/05/16 12:38:11;;;;;;;8.43;4.63;;;24.90;97.80;;;;;;5124141;28;20202;-72
2022/05/16 12:41:08;;;;;;;10.73;4.22;;;24.30;99.90;;;;;;5132578;28;20195;-72
2022/05/16 12:43:50;;;;;;;4.90;4.50;;;23.90;99.90;;;;;;5111265;28;20199;-72
2022/05/16 12:46:38;;;;;;;5.90;4.13;;;23.90;99.90;;;;;;5124006;27;20317;-72
2022/05/16 12:49:40;;;;;;;4.90;4.22;;;24.30;99.90;;;;;;5128033;27;20203;-72
2022/05/16 12:52:22;;;;;;;7.93;4.55;;;24.40;99.90;;;;;;5115019;27;20197;-72
2022/05/16 12:55:18;;;;;;;6.00;4.97;;;24.10;99.90;;;;;;5136456;27;20249;-72
2022/05/16 12:58:08;;;;;;;7.72;5.80;;;23.10;99.90;;;;;;5115722;28;20600;-72
2022/05/16 13:00:42;;;;;;;12.63;5.95;;;22.40;99.90;;;;;;5129484;27;20238;-71
2022/05/16 13:03:22;;;;;;;15.75;7.20;;;21.70;99.90;;;;;;5127182;27;20672;-71
2022/05/16 13:05:59;;;;;;;12.57;7.40;;;19.80;99.90;;;;;;5124050;27;20663;-72
2022/05/16 13:08:33;;;;;;;12.75;8.00;;;19.00;99.90;;;;;;5126666;27;20207;-70
2022/05/16 13:11:10;;;;;;;16.58;8.38;;;19.10;99.90;;;;;;5118336;27;20620;-71
2022/05/16 13:13:56;;;;;;;12.07;9.07;;;19.20;99.90;;;;;;5116499;27;20222;-70
2022/05/16 13:16:26;;;;;;;12.35;8.20;;;19.40;99.90;;;;;;5113292;28;20290;-72
2022/05/16 13:18:58;;;;;;;11.20;8.02;;;19.40;99.90;;;;;;5111536;28;20660;-74
2022/05/16 13:21:37;;;;;;;9.13;7.78;;;19.50;99.90;;;;;;5132874;27;20202;-71
2022/05/16 13:24:08;;;;;;;11.15;7.60;;;19.50;99.90;;;;;;5114825;27;20208;-72
2022/05/16 13:29:26;;;;;;;11.02;7.97;;;19.70;99.90;;;;;;5112261;27;20858;-72
2022/05/16 13:31:56;;;;;;;13.75;7.82;;;19.70;99.90;;;;;;5129040;27;20198;-73
2022/05/16 13:34:32;;;;;;;10.98;7.63;;;19.70;99.90;;;;;;5122909;27;20271;-72
2022/05/16 13:37:02;;;;;;;12.25;7.10;;;19.70;99.90;;;;;;5123199;27;20295;-73
2022/05/16 13:39:35;;;;;;;8.20;7.05;;;19.70;99.90;;;;;;5126337;27;20247;-72